createdAt,value
2023-04-02T00:00:36.168Z,10.85
2023-04-02T00:03:08.752Z,9.77
2023-04-02T00:05:52.934Z,10.23
2023-04-02T00:08:39.028Z,10.18
2023-04-02T00:11:10.358Z,11.27
2023-04-02T00:13:43.647Z,10.82
2023-04-02T00:16:15.916Z,10.73
2023-04-02T00:18:50.288Z,11.00
2023-04-02T00:21:25.873Z,10.80
2023-04-02T00:23:57.176Z,12.07
2023-04-02T00:26:32.383Z,10.98
2023-04-02T00:31:31.205Z,11.50
2023-04-02T00:34:02.622Z,11.52
2023-04-02T00:36:35.673Z,12.38
2023-04-02T00:39:08.997Z,11.85
2023-04-02T00:41:39.355Z,11.05
2023-04-02T00:44:12.681Z,11.50
2023-04-02T00:47:09.338Z,12.38
2023-04-02T00:49:41.062Z,11.10
2023-04-02T00:52:15.780Z,11.55
2023-04-02T00:54:49.766Z,11.63
2023-04-02T00:57:23.567Z,12.82
2023-04-02T00:59:56.999Z,12.00
2023-04-02T01:02:31.030Z,11.32
2023-04-02T01:05:03.680Z,12.60
2023-04-02T01:07:55.991Z,12.18
2023-04-02T01:10:41.646Z,12.38
2023-04-02T01:15:53.183Z,12.77
2023-04-02T01:18:33.402Z,11.68
2023-04-02T01:21:17.964Z,12.75
2023-04-02T01:23:58.971Z,12.52
2023-04-02T01:26:38.121Z,11.20
2023-04-02T01:29:12.457Z,11.50
2023-04-02T01:31:43.795Z,10.70
2023-04-02T01:34:15.744Z,12.68
2023-04-02T01:37:01.163Z,12.38
2023-04-02T01:39:43.370Z,11.98
2023-04-02T01:42:18.502Z,11.18
2023-04-02T01:44:52.266Z,13.38
2023-04-02T01:47:27.459Z,12.82
2023-04-02T01:50:03.966Z,12.68
2023-04-02T01:52:40.833Z,12.07
2023-04-02T01:55:13.235Z,12.98
2023-04-02T01:57:45.088Z,12.15
2023-04-02T02:00:18.144Z,11.70
2023-04-02T02:02:53.336Z,11.43
2023-04-02T02:05:24.797Z,12.10
2023-04-02T02:07:58.008Z,10.82
2023-04-02T02:10:30.718Z,11.93
2023-04-02T02:13:00.591Z,12.70
2023-04-02T02:15:34.795Z,12.25
2023-04-02T02:18:06.876Z,11.45
2023-04-02T02:20:37.190Z,11.98
2023-04-02T02:23:07.382Z,10.95
2023-04-02T02:25:37.873Z,12.10
2023-04-02T02:28:09.600Z,12.07
2023-04-02T02:30:44.884Z,12.48
2023-04-02T02:33:21.957Z,12.38
2023-04-02T02:35:56.808Z,11.88
2023-04-02T02:38:42.190Z,11.60
2023-04-02T02:41:24.755Z,12.10
2023-04-02T02:44:01.517Z,12.23
2023-04-02T02:46:35.571Z,12.10
2023-04-02T02:49:12.121Z,11.57
2023-04-02T02:51:45.532Z,12.35
2023-04-02T02:54:20.426Z,11.30
2023-04-02T02:56:56.442Z,11.05
2023-04-02T02:59:28.104Z,12.05
2023-04-02T03:02:00.686Z,10.57
2023-04-02T03:04:35.920Z,12.13
2023-04-02T03:07:10.567Z,10.95
2023-04-02T03:09:48.040Z,12.70
2023-04-02T03:12:38.673Z,11.80
2023-04-02T03:15:19.516Z,13.48
2023-04-02T03:17:54.945Z,11.93
2023-04-02T03:20:29.937Z,11.65
2023-04-02T03:23:04.076Z,11.30
2023-04-02T03:25:41.881Z,13.13
2023-04-02T03:28:18.205Z,12.73
2023-04-02T03:30:52.426Z,12.90
2023-04-02T03:33:28.539Z,11.90
2023-04-02T03:36:04.838Z,11.55
2023-04-02T03:38:46.719Z,11.93
2023-04-02T03:41:21.304Z,11.73
2023-04-02T03:43:57.975Z,11.88
2023-04-02T03:46:34.857Z,11.35
2023-04-02T03:49:11.083Z,12.52
2023-04-02T03:51:48.426Z,11.93
2023-04-02T03:54:18.429Z,10.98
2023-04-02T03:56:48.249Z,11.57
2023-04-02T03:59:35.990Z,12.40
2023-04-02T04:02:15.996Z,10.70
2023-04-02T04:04:49.932Z,10.65
2023-04-02T04:07:29.286Z,10.85
2023-04-02T04:10:00.619Z,10.95
2023-04-02T04:12:36.062Z,10.52
2023-04-02T04:15:11.325Z,11.13
2023-04-02T04:17:51.721Z,10.23
2023-04-02T04:20:28.277Z,10.73
2023-04-02T04:23:11.018Z,10.10
2023-04-02T04:25:41.006Z,9.90
2023-04-02T04:28:38.491Z,9.88
2023-04-02T04:31:21.375Z,9.90
2023-04-02T04:34:06.871Z,9.18
2023-04-02T04:36:54.435Z,8.70
2023-04-02T04:39:36.853Z,8.77
2023-04-02T04:42:08.487Z,8.93
2023-04-02T04:44:45.603Z,8.75
2023-04-02T04:47:21.643Z,8.18
2023-04-02T04:49:56.023Z,9.18
2023-04-02T04:52:30.738Z,8.70
2023-04-02T04:55:01.472Z,8.45
2023-04-02T04:57:35.324Z,8.80
2023-04-02T05:00:18.576Z,7.93
2023-04-02T05:02:55.262Z,8.38
2023-04-02T05:05:30.610Z,8.32
2023-04-02T05:08:24.288Z,8.05
2023-04-02T05:10:59.487Z,9.02
2023-04-02T05:13:36.152Z,7.65
2023-04-02T05:16:15.161Z,9.05
2023-04-02T05:18:51.976Z,8.10
2023-04-02T05:21:27.650Z,7.75
2023-04-02T05:24:06.942Z,8.77
2023-04-02T05:26:43.438Z,8.43
2023-04-02T05:29:19.919Z,8.45
2023-04-02T05:31:55.732Z,8.30
2023-04-02T05:34:29.910Z,8.38
2023-04-02T05:37:00.229Z,8.90
2023-04-02T05:39:32.604Z,7.28
2023-04-02T05:42:06.199Z,7.60
2023-04-02T05:45:02.542Z,7.97
2023-04-02T05:47:41.151Z,8.20
2023-04-02T05:50:26.707Z,8.25
2023-04-02T05:53:04.229Z,7.97
2023-04-02T05:55:52.431Z,7.75
2023-04-02T05:58:36.277Z,8.48
2023-04-02T06:01:25.285Z,9.23
2023-04-02T06:04:03.167Z,8.70
2023-04-02T06:06:50.246Z,8.18
2023-04-02T06:09:26.542Z,8.40
2023-04-02T06:12:12.516Z,9.00
2023-04-02T06:15:09.035Z,8.63
2023-04-02T06:17:48.144Z,8.73
2023-04-02T06:20:20.650Z,9.13
2023-04-02T06:22:52.866Z,8.48
2023-04-02T06:25:27.514Z,8.63
2023-04-02T06:28:01.507Z,9.27
2023-04-02T06:30:44.530Z,10.07
2023-04-02T06:33:14.687Z,8.98
2023-04-02T06:35:51.171Z,8.95
2023-04-02T06:38:32.519Z,9.32
2023-04-02T06:41:04.627Z,8.85
2023-04-02T06:43:47.301Z,9.20
2023-04-02T06:46:29.765Z,8.75
2023-04-02T06:49:23.265Z,8.75
2023-04-02T06:52:01.282Z,8.68
2023-04-02T06:54:33.525Z,8.35
2023-04-02T06:57:08.941Z,8.38
2023-04-02T06:59:45.382Z,7.97
2023-04-02T07:02:32.978Z,8.45
2023-04-02T07:05:09.360Z,8.38
2023-04-02T07:07:42.580Z,8.30
2023-04-02T07:10:13.960Z,7.18
2023-04-02T07:12:43.178Z,7.47
2023-04-02T07:15:17.367Z,7.47
2023-04-02T07:17:47.791Z,7.70
2023-04-02T07:20:29.183Z,7.80
2023-04-02T07:23:00.149Z,8.02
2023-04-02T07:25:29.251Z,7.15
2023-04-02T07:27:58.534Z,7.50
2023-04-02T07:30:29.334Z,8.93
2023-04-02T07:32:58.530Z,7.65
2023-04-02T07:35:27.621Z,7.55
2023-04-02T07:37:56.788Z,8.13
2023-04-02T07:40:29.144Z,6.60
2023-04-02T07:42:58.737Z,7.80
2023-04-02T07:45:29.603Z,7.82
2023-04-02T07:48:01.469Z,8.63
2023-04-02T07:50:31.074Z,8.00
2023-04-02T07:53:00.631Z,7.32
2023-04-02T07:55:29.736Z,7.53
2023-04-02T07:58:00.656Z,7.78
2023-04-02T08:00:32.441Z,7.57
2023-04-02T08:03:01.752Z,8.02
2023-04-02T08:05:31.007Z,7.10
2023-04-02T08:08:00.142Z,6.97
2023-04-02T08:10:29.493Z,7.25
2023-04-02T08:12:59.018Z,7.32
2023-04-02T08:15:28.299Z,7.05
2023-04-02T08:17:59.289Z,7.45
2023-04-02T08:20:28.737Z,7.05
2023-04-02T08:23:01.236Z,6.35
2023-04-02T08:25:31.110Z,6.78
2023-04-02T08:28:01.738Z,7.00
2023-04-02T08:30:31.515Z,6.78
2023-04-02T08:33:02.264Z,6.80
2023-04-02T08:35:31.904Z,6.93
2023-04-02T08:38:01.593Z,6.65
2023-04-02T08:40:34.497Z,7.63
2023-04-02T08:43:17.059Z,6.63
2023-04-02T08:46:05.033Z,6.85
2023-04-02T08:48:40.787Z,7.65
2023-04-02T08:51:23.129Z,6.60
2023-04-02T08:53:54.796Z,6.55
2023-04-02T08:56:30.644Z,7.18
2023-04-02T08:59:03.984Z,6.65
2023-04-02T09:01:41.628Z,7.22
2023-04-02T09:04:19.065Z,6.63
2023-04-02T09:06:50.519Z,6.30
2023-04-02T09:09:21.789Z,6.47
2023-04-02T09:12:01.574Z,5.88
2023-04-02T09:14:37.934Z,6.53
2023-04-02T09:17:14.295Z,5.32
2023-04-02T09:19:56.321Z,5.72
2023-04-02T09:22:28.665Z,6.03
2023-04-02T09:24:59.338Z,6.93
2023-04-02T09:27:31.647Z,5.93
2023-04-02T09:30:04.914Z,6.22
2023-04-02T09:32:50.589Z,6.40
2023-04-02T09:35:26.571Z,5.75
2023-04-02T09:38:19.052Z,5.80
2023-04-02T09:40:51.879Z,5.65
2023-04-02T09:43:29.606Z,6.18
2023-04-02T09:46:01.987Z,5.53
2023-04-02T09:48:34.308Z,6.25
2023-04-02T09:51:21.869Z,6.03
2023-04-02T09:53:52.361Z,5.93
2023-04-02T09:56:23.698Z,5.90
2023-04-02T09:59:06.171Z,5.35
2023-04-02T10:01:39.002Z,5.72
2023-04-02T10:04:38.862Z,5.47
2023-04-02T10:07:29.604Z,4.85
2023-04-02T10:09:59.905Z,5.25
2023-04-02T10:12:33.446Z,6.18
2023-04-02T10:15:05.604Z,4.72
2023-04-02T10:17:38.874Z,5.10
2023-04-02T10:20:20.288Z,4.72
2023-04-02T10:22:51.645Z,5.00
2023-04-02T10:25:27.291Z,4.90
2023-04-02T10:28:07.616Z,6.40
2023-04-02T10:30:46.876Z,5.55
2023-04-02T10:33:23.883Z,5.75
2023-04-02T10:36:00.264Z,5.28
2023-04-02T10:38:52.279Z,5.65
2023-04-02T10:41:31.846Z,5.60
2023-04-02T10:44:29.467Z,5.55
2023-04-02T10:47:10.414Z,5.63
2023-04-02T10:49:45.391Z,5.93
2023-04-02T10:54:53.116Z,5.05
2023-04-02T10:57:35.399Z,5.50
2023-04-02T11:00:17.408Z,5.43
2023-04-02T11:02:52.372Z,5.05
2023-04-02T11:08:08.166Z,5.75
2023-04-02T11:10:44.475Z,5.40
2023-04-02T11:13:20.205Z,5.53
2023-04-02T11:15:50.850Z,5.43
2023-04-02T11:18:26.350Z,5.57
2023-04-02T11:21:01.671Z,5.68
2023-04-02T11:26:35.571Z,5.82
2023-04-02T11:29:18.757Z,5.20
2023-04-02T11:31:48.616Z,5.70
2023-04-02T11:35:06.624Z,5.60
2023-04-02T11:37:39.834Z,5.53
2023-04-02T11:40:48.939Z,5.47
2023-04-02T11:44:01.500Z,5.28
2023-04-02T11:46:41.857Z,5.47
2023-04-02T11:49:42.064Z,5.53
2023-04-02T11:52:27.174Z,5.63
2023-04-02T11:55:19.364Z,5.15
2023-04-02T11:58:22.956Z,5.28
2023-04-02T12:05:24.594Z,5.78
2023-04-02T12:08:12.549Z,5.60
2023-04-02T12:10:56.293Z,5.00
2023-04-02T12:13:53.115Z,5.70
2023-04-02T12:16:29.387Z,6.53
2023-04-02T12:18:59.550Z,5.38
2023-04-02T12:21:31.571Z,5.93
2023-04-02T12:24:04.114Z,6.10
2023-04-02T12:26:38.019Z,7.38
2023-04-02T12:29:18.203Z,5.27
2023-04-02T12:31:48.964Z,5.80
2023-04-02T12:34:20.364Z,5.75
2023-04-02T12:37:20.980Z,5.47
2023-04-02T12:39:58.413Z,5.43
2023-04-02T12:42:32.513Z,5.70
2023-04-02T12:45:02.594Z,6.70
2023-04-02T12:47:32.905Z,5.65
2023-04-02T12:50:04.441Z,7.32
2023-04-02T12:52:36.326Z,6.13
2023-04-02T12:55:07.843Z,6.50
2023-04-02T12:57:42.834Z,6.53
2023-04-02T13:00:36.568Z,6.72
2023-04-02T13:03:19.814Z,6.13
2023-04-02T13:05:55.390Z,5.80
2023-04-02T13:08:28.735Z,5.80
2023-04-02T13:11:00.924Z,6.18
2023-04-02T13:13:37.990Z,6.93
2023-04-02T13:16:25.688Z,6.15
2023-04-02T13:19:16.437Z,5.75
2023-04-02T13:21:49.479Z,7.22
2023-04-02T13:24:21.659Z,6.68
2023-04-02T13:26:52.288Z,5.65
2023-04-02T13:29:26.549Z,6.65
2023-04-02T13:31:58.075Z,5.68
2023-04-02T13:34:28.192Z,5.38
2023-04-02T13:36:58.876Z,5.20
2023-04-02T13:39:30.685Z,4.85
2023-04-02T13:42:04.453Z,5.13
2023-04-02T13:44:37.189Z,5.35
2023-04-02T13:47:06.989Z,5.53
2023-04-02T13:49:36.700Z,5.13
2023-04-02T13:52:06.531Z,4.97
2023-04-02T13:54:44.950Z,5.32
2023-04-02T13:57:16.595Z,5.05
2023-04-02T13:59:46.434Z,4.45
2023-04-02T14:02:20.196Z,4.38
2023-04-02T14:04:54.004Z,5.05
2023-04-02T14:07:51.884Z,5.03
2023-04-02T14:10:32.015Z,4.50
2023-04-02T14:13:15.311Z,4.78
2023-04-02T14:15:56.991Z,4.25
2023-04-02T14:18:43.847Z,4.82
2023-04-02T14:21:23.456Z,4.10
2023-04-02T14:24:06.337Z,4.55
2023-04-02T14:26:49.997Z,3.65
2023-04-02T14:29:28.795Z,4.28
2023-04-02T14:32:07.112Z,3.90
2023-04-02T14:34:44.545Z,3.85
2023-04-02T14:37:22.679Z,4.07
2023-04-02T14:40:01.318Z,4.00
2023-04-02T14:42:37.363Z,4.55
2023-04-02T14:45:11.922Z,4.15
2023-04-02T14:47:46.828Z,3.95
2023-04-02T14:50:21.317Z,3.88
2023-04-02T14:52:56.722Z,4.05
2023-04-02T14:55:32.959Z,4.07
2023-04-02T14:58:07.026Z,4.38
2023-04-02T15:00:43.059Z,4.40
2023-04-02T15:03:19.435Z,3.90
2023-04-02T15:05:51.522Z,4.07
2023-04-02T15:08:24.396Z,4.28
2023-04-02T15:11:04.232Z,4.40
2023-04-02T15:13:40.063Z,4.15
2023-04-02T15:16:14.900Z,4.10
2023-04-02T15:18:47.166Z,4.55
2023-04-02T15:21:49.771Z,4.65
2023-04-02T15:24:31.499Z,4.70
2023-04-02T15:27:23.916Z,6.72
2023-04-02T15:30:02.601Z,5.43
2023-04-02T15:32:39.030Z,4.90
2023-04-02T15:35:21.251Z,4.65
2023-04-02T15:38:01.469Z,4.70
2023-04-02T15:40:44.774Z,4.97
2023-04-02T15:43:21.028Z,5.55
2023-04-02T15:46:07.518Z,5.07
2023-04-02T15:49:01.531Z,5.35
2023-04-02T15:51:43.121Z,6.00
2023-04-02T15:54:26.034Z,5.88
2023-04-02T15:57:08.691Z,5.47
2023-04-02T16:00:16.196Z,4.75
2023-04-02T16:03:18.571Z,4.22
2023-04-02T16:06:01.904Z,4.28
2023-04-02T16:08:45.446Z,4.93
2023-04-02T16:11:16.287Z,4.32
2023-04-02T16:13:47.219Z,4.50
2023-04-02T16:16:21.286Z,4.80
2023-04-02T16:19:00.906Z,3.70
2023-04-02T16:21:33.531Z,5.25
2023-04-02T16:24:02.993Z,4.90
2023-04-02T16:26:45.353Z,4.03
2023-04-02T16:29:28.250Z,4.20
2023-04-02T16:32:05.492Z,3.80
2023-04-02T16:34:48.693Z,3.58
2023-04-02T16:37:27.830Z,3.60
2023-04-02T16:40:08.392Z,3.45
2023-04-02T16:42:47.997Z,3.75
2023-04-02T16:45:30.166Z,3.92
2023-04-02T16:48:15.670Z,3.95
2023-04-02T16:50:56.231Z,4.10
2023-04-02T16:53:35.787Z,3.47
2023-04-02T16:56:21.703Z,3.97
2023-04-02T16:59:02.351Z,4.13
2023-04-02T17:01:43.206Z,3.67
2023-04-02T17:04:35.969Z,3.78
2023-04-02T17:07:14.022Z,3.60
2023-04-02T17:09:50.546Z,3.70
2023-04-02T17:12:23.352Z,3.80
2023-04-02T17:14:55.549Z,4.22
2023-04-02T17:17:58.025Z,3.20
2023-04-02T17:20:46.139Z,3.70
2023-04-02T17:23:18.421Z,4.25
2023-04-02T17:25:52.211Z,3.63
2023-04-02T17:28:26.428Z,3.70
2023-04-02T17:31:00.449Z,3.67
2023-04-02T17:33:29.805Z,3.90
2023-04-02T17:36:22.585Z,3.92
2023-04-02T17:39:04.187Z,3.67
2023-04-02T17:41:39.756Z,4.03
2023-04-02T17:44:51.077Z,3.70
2023-04-02T17:47:25.166Z,3.30
2023-04-02T17:50:17.467Z,3.65
2023-04-02T17:52:56.709Z,3.92
2023-04-02T17:55:41.318Z,3.78
2023-04-02T17:58:27.929Z,3.45
2023-04-02T18:01:10.182Z,3.60
2023-04-02T18:03:58.929Z,3.50
2023-04-02T18:06:38.221Z,3.45
2023-04-02T18:09:28.072Z,3.20
2023-04-02T18:12:09.610Z,3.80
2023-04-02T18:15:00.973Z,3.53
2023-04-02T18:17:41.403Z,3.63
2023-04-02T18:20:23.682Z,3.25
2023-04-02T18:23:03.646Z,4.47
2023-04-02T18:25:56.228Z,3.17
2023-04-02T18:29:08.378Z,3.63
2023-04-02T18:32:04.834Z,3.28
2023-04-02T18:34:52.107Z,3.25
2023-04-02T18:37:29.600Z,3.42
2023-04-02T18:40:12.957Z,4.28
2023-04-02T18:42:59.171Z,3.75
2023-04-02T18:45:41.397Z,3.78
2023-04-02T18:48:27.112Z,3.80
2023-04-02T18:53:30.542Z,3.45
2023-04-02T18:56:05.546Z,3.50
2023-04-02T18:58:44.349Z,3.65
2023-04-02T19:01:38.774Z,3.65
2023-04-02T19:04:11.449Z,4.13
2023-04-02T19:06:45.502Z,3.88
2023-04-02T19:09:18.261Z,3.47
2023-04-02T19:11:48.094Z,4.47
2023-04-02T19:14:20.477Z,3.28
2023-04-02T19:17:04.818Z,3.42
2023-04-02T19:19:41.526Z,3.67
2023-04-02T19:22:18.207Z,3.15
2023-04-02T19:25:05.212Z,3.50
2023-04-02T19:27:44.064Z,3.80
2023-04-02T19:30:39.403Z,3.72
2023-04-02T19:33:23.633Z,3.58
2023-04-02T19:35:57.496Z,3.47
2023-04-02T19:38:47.033Z,3.60
2023-04-02T19:41:26.756Z,4.80
2023-04-02T19:43:57.089Z,3.60
2023-04-02T19:46:27.775Z,3.60
2023-04-02T19:49:04.704Z,3.60
2023-04-02T19:51:34.968Z,3.83
2023-04-02T19:54:04.356Z,3.58
2023-04-02T19:56:34.253Z,3.17
2023-04-02T19:59:17.061Z,3.30
2023-04-02T20:01:48.380Z,3.60
2023-04-02T20:04:19.794Z,4.20
2023-04-02T20:06:49.346Z,3.45
2023-04-02T20:09:18.667Z,3.92
2023-04-02T20:11:49.285Z,3.45
2023-04-02T20:14:18.831Z,3.92
2023-04-02T20:16:49.258Z,4.03
2023-04-02T20:19:20.932Z,3.67
2023-04-02T20:21:50.997Z,3.95
2023-04-02T20:24:22.896Z,3.78
2023-04-02T20:26:55.424Z,4.15
2023-04-02T20:29:27.937Z,4.00
2023-04-02T20:31:57.820Z,4.28
2023-04-02T20:34:28.635Z,4.15
2023-04-02T20:36:58.667Z,3.70
2023-04-02T20:39:28.964Z,4.93
2023-04-02T20:42:02.791Z,3.92
2023-04-02T20:44:32.067Z,4.63
2023-04-02T20:47:02.095Z,3.42
2023-04-02T20:49:32.603Z,4.03
2023-04-02T20:52:01.927Z,4.15
2023-04-02T20:54:31.177Z,4.00
2023-04-02T20:57:06.512Z,4.07
2023-04-02T20:59:35.778Z,3.88
2023-04-02T21:02:04.731Z,4.10
2023-04-02T21:04:35.133Z,3.85
2023-04-02T21:07:04.239Z,3.80
2023-04-02T21:09:33.294Z,4.25
2023-04-02T21:12:02.364Z,3.67
2023-04-02T21:14:35.848Z,3.75
2023-04-02T21:17:06.122Z,3.55
2023-04-02T21:19:36.798Z,3.85
2023-04-02T21:22:05.831Z,3.83
2023-04-02T21:24:34.976Z,3.88
2023-04-02T21:27:03.945Z,3.83
2023-04-02T21:29:33.068Z,3.47
2023-04-02T21:32:08.260Z,3.88
2023-04-02T21:34:44.719Z,4.38
2023-04-02T21:37:13.618Z,4.38
2023-04-02T21:39:42.735Z,3.75
2023-04-02T21:42:13.486Z,3.63
2023-04-02T21:44:42.455Z,3.95
2023-04-02T21:47:11.468Z,4.30
2023-04-02T21:49:40.615Z,4.60
2023-04-02T21:52:11.983Z,3.90
2023-04-02T21:54:40.937Z,6.18
2023-04-02T21:57:09.997Z,4.38
2023-04-02T21:59:38.969Z,4.05
2023-04-02T22:02:08.087Z,4.63
2023-04-02T22:04:37.130Z,4.80
2023-04-02T22:07:06.111Z,4.07
2023-04-02T22:09:36.921Z,4.57
2023-04-02T22:12:08.150Z,4.15
2023-04-02T22:14:37.160Z,4.50
2023-04-02T22:17:06.345Z,4.20
2023-04-02T22:19:35.880Z,4.00
2023-04-02T22:22:04.970Z,3.75
2023-04-02T22:24:34.114Z,4.32
2023-04-02T22:27:04.764Z,4.38
2023-04-02T22:29:33.831Z,4.50
2023-04-02T22:32:02.906Z,4.57
2023-04-02T22:34:32.062Z,4.13
2023-04-02T22:37:01.321Z,4.50
2023-04-02T22:39:30.429Z,4.43
2023-04-02T22:41:59.350Z,4.63
2023-04-02T22:44:29.675Z,4.07
2023-04-02T22:46:58.767Z,4.50
2023-04-02T22:49:27.830Z,4.45
2023-04-02T22:51:56.771Z,4.10
2023-04-02T22:54:25.803Z,4.70
2023-04-02T22:56:54.627Z,4.97
2023-04-02T22:59:23.635Z,4.60
2023-04-02T23:01:54.002Z,4.88
2023-04-02T23:04:22.976Z,4.15
2023-04-02T23:06:52.005Z,3.83
2023-04-02T23:09:21.568Z,4.57
2023-04-02T23:11:50.611Z,4.22
2023-04-02T23:14:19.742Z,4.22
2023-04-02T23:16:48.656Z,4.18
2023-04-02T23:19:18.939Z,4.10
2023-04-02T23:21:47.923Z,4.43
2023-04-02T23:24:17.275Z,3.97
2023-04-02T23:26:46.348Z,4.85
2023-04-02T23:29:15.750Z,3.97
2023-04-02T23:31:44.728Z,4.35
2023-04-02T23:34:13.791Z,4.45
2023-04-02T23:36:44.122Z,4.75
2023-04-02T23:39:14.753Z,4.25
2023-04-02T23:41:44.256Z,4.20
2023-04-02T23:44:13.420Z,4.28
2023-04-02T23:46:42.500Z,4.25
2023-04-02T23:49:12.995Z,4.13
2023-04-02T23:51:43.417Z,4.43
2023-04-02T23:54:13.896Z,4.20
2023-04-02T23:56:43.301Z,4.30
2023-04-02T23:59:12.299Z,4.15
